sensor_id;sensor_type;location;lat;lon;timestamp;P1;durP1;ratioP1;P2;durP2;ratioP2
4452;SDS011;2239;48.152;11.584;2023-11-19T00:01:26;2.40;;;1.17;;
4452;SDS011;2239;48.152;11.584;2023-11-19T00:03:52;2.70;;;1.30;;
4452;SDS011;2239;48.152;11.584;2023-11-19T00:06:18;1.25;;;1.10;;
4452;SDS011;2239;48.152;11.584;2023-11-19T00:08:44;1.93;;;1.30;;
4452;SDS011;2239;48.152;11.584;2023-11-19T00:11:09;2.80;;;1.43;;
4452;SDS011;2239;48.152;11.584;2023-11-19T00:13:36;1.83;;;1.00;;
4452;SDS011;2239;48.152;11.584;2023-11-19T00:16:02;2.25;;;1.10;;
4452;SDS011;2239;48.152;11.584;2023-11-19T00:18:29;2.55;;;1.52;;
4452;SDS011;2239;48.152;11.584;2023-11-19T00:20:54;4.20;;;1.67;;
4452;SDS011;2239;48.152;11.584;2023-11-19T00:23:20;1.93;;;1.37;;
4452;SDS011;2239;48.152;11.584;2023-11-19T00:25:46;2.70;;;1.47;;
4452;SDS011;2239;48.152;11.584;2023-11-19T00:28:12;2.40;;;1.23;;
4452;SDS011;2239;48.152;11.584;2023-11-19T00:30:38;2.00;;;1.40;;
4452;SDS011;2239;48.152;11.584;2023-11-19T00:33:05;5.07;;;1.45;;
4452;SDS011;2239;48.152;11.584;2023-11-19T00:35:31;1.70;;;1.03;;
4452;SDS011;2239;48.152;11.584;2023-11-19T00:37:57;2.60;;;1.52;;
4452;SDS011;2239;48.152;11.584;2023-11-19T00:40:23;4.00;;;1.37;;
4452;SDS011;2239;48.152;11.584;2023-11-19T00:42:49;4.50;;;1.10;;
4452;SDS011;2239;48.152;11.584;2023-11-19T00:45:14;3.67;;;1.83;;
4452;SDS011;2239;48.152;11.584;2023-11-19T00:47:40;2.13;;;1.30;;
4452;SDS011;2239;48.152;11.584;2023-11-19T00:50:06;2.10;;;1.47;;
4452;SDS011;2239;48.152;11.584;2023-11-19T00:52:36;4.50;;;1.85;;
4452;SDS011;2239;48.152;11.584;2023-11-19T00:55:02;2.97;;;1.35;;
4452;SDS011;2239;48.152;11.584;2023-11-19T00:57:29;2.65;;;1.67;;
4452;SDS011;2239;48.152;11.584;2023-11-19T00:59:55;3.20;;;1.40;;
4452;SDS011;2239;48.152;11.584;2023-11-19T01:02:21;3.37;;;1.50;;
4452;SDS011;2239;48.152;11.584;2023-11-19T01:04:46;5.63;;;1.70;;
4452;SDS011;2239;48.152;11.584;2023-11-19T01:07:12;4.60;;;1.80;;
4452;SDS011;2239;48.152;11.584;2023-11-19T01:09:38;2.73;;;1.60;;
4452;SDS011;2239;48.152;11.584;2023-11-19T01:12:04;3.22;;;1.35;;
4452;SDS011;2239;48.152;11.584;2023-11-19T01:14:30;2.20;;;1.20;;
4452;SDS011;2239;48.152;11.584;2023-11-19T01:16:55;2.73;;;1.37;;
4452;SDS011;2239;48.152;11.584;2023-11-19T01:19:21;3.20;;;1.60;;
4452;SDS011;2239;48.152;11.584;2023-11-19T01:21:48;1.38;;;1.05;;
4452;SDS011;2239;48.152;11.584;2023-11-19T01:24:14;3.03;;;1.33;;
4452;SDS011;2239;48.152;11.584;2023-11-19T01:26:39;1.77;;;1.00;;
4452;SDS011;2239;48.152;11.584;2023-11-19T01:29:13;4.70;;;1.42;;
4452;SDS011;2239;48.152;11.584;2023-11-19T01:31:42;2.85;;;1.10;;
4452;SDS011;2239;48.152;11.584;2023-11-19T01:34:10;4.85;;;1.50;;
4452;SDS011;2239;48.152;11.584;2023-11-19T01:36:36;2.78;;;1.30;;
4452;SDS011;2239;48.152;11.584;2023-11-19T01:39:02;3.80;;;1.00;;
4452;SDS011;2239;48.152;11.584;2023-11-19T01:41:29;1.35;;;1.02;;
4452;SDS011;2239;48.152;11.584;2023-11-19T01:44:01;2.42;;;1.30;;
4452;SDS011;2239;48.152;11.584;2023-11-19T01:46:27;5.33;;;1.47;;
4452;SDS011;2239;48.152;11.584;2023-11-19T01:48:53;1.30;;;1.20;;
4452;SDS011;2239;48.152;11.584;2023-11-19T01:51:20;1.73;;;1.00;;
4452;SDS011;2239;48.152;11.584;2023-11-19T01:53:46;3.30;;;1.27;;
4452;SDS011;2239;48.152;11.584;2023-11-19T01:56:14;3.20;;;1.60;;
4452;SDS011;2239;48.152;11.584;2023-11-19T01:58:41;5.57;;;1.00;;
4452;SDS011;2239;48.152;11.584;2023-11-19T02:01:08;1.33;;;0.90;;
4452;SDS011;2239;48.152;11.584;2023-11-19T02:03:36;1.85;;;1.00;;
4452;SDS011;2239;48.152;11.584;2023-11-19T02:06:02;0.80;;;0.77;;
4452;SDS011;2239;48.152;11.584;2023-11-19T02:08:31;3.90;;;1.42;;
4452;SDS011;2239;48.152;11.584;2023-11-19T02:10:57;4.03;;;1.10;;
4452;SDS011;2239;48.152;11.584;2023-11-19T02:13:23;1.63;;;0.80;;
4452;SDS011;2239;48.152;11.584;2023-11-19T02:15:50;3.22;;;1.20;;
4452;SDS011;2239;48.152;11.584;2023-11-19T02:18:25;1.67;;;1.20;;
4452;SDS011;2239;48.152;11.584;2023-11-19T02:20:55;1.35;;;0.90;;
4452;SDS011;2239;48.152;11.584;2023-11-19T02:23:26;1.10;;;1.00;;
4452;SDS011;2239;48.152;11.584;2023-11-19T02:28:41;2.17;;;1.20;;
4452;SDS011;2239;48.152;11.584;2023-11-19T02:31:07;3.83;;;1.00;;
4452;SDS011;2239;48.152;11.584;2023-11-19T02:33:39;2.57;;;1.27;;
4452;SDS011;2239;48.152;11.584;2023-11-19T02:36:05;2.38;;;1.20;;
4452;SDS011;2239;48.152;11.584;2023-11-19T02:38:32;2.38;;;1.40;;
4452;SDS011;2239;48.152;11.584;2023-11-19T02:40:58;2.20;;;1.20;;
4452;SDS011;2239;48.152;11.584;2023-11-19T02:43:27;3.17;;;1.27;;
4452;SDS011;2239;48.152;11.584;2023-11-19T02:45:53;1.60;;;0.87;;
4452;SDS011;2239;48.152;11.584;2023-11-19T02:48:20;2.20;;;1.03;;
4452;SDS011;2239;48.152;11.584;2023-11-19T02:50:46;1.37;;;1.10;;
4452;SDS011;2239;48.152;11.584;2023-11-19T02:53:12;4.30;;;1.37;;
4452;SDS011;2239;48.152;11.584;2023-11-19T02:55:38;1.73;;;1.00;;
4452;SDS011;2239;48.152;11.584;2023-11-19T02:58:05;1.70;;;1.07;;
4452;SDS011;2239;48.152;11.584;2023-11-19T03:00:44;4.90;;;1.17;;
4452;SDS011;2239;48.152;11.584;2023-11-19T03:03:17;1.77;;;1.20;;
4452;SDS011;2239;48.152;11.584;2023-11-19T03:05:45;1.57;;;1.00;;
4452;SDS011;2239;48.152;11.584;2023-11-19T03:08:11;2.33;;;1.40;;
4452;SDS011;2239;48.152;11.584;2023-11-19T03:10:37;1.30;;;1.03;;
4452;SDS011;2239;48.152;11.584;2023-11-19T03:13:03;1.03;;;0.87;;
4452;SDS011;2239;48.152;11.584;2023-11-19T03:15:29;3.00;;;1.30;;
4452;SDS011;2239;48.152;11.584;2023-11-19T03:17:55;1.73;;;1.03;;
4452;SDS011;2239;48.152;11.584;2023-11-19T03:20:20;1.40;;;1.00;;
4452;SDS011;2239;48.152;11.584;2023-11-19T03:22:46;1.13;;;1.00;;
4452;SDS011;2239;48.152;11.584;2023-11-19T03:25:11;4.33;;;1.50;;
4452;SDS011;2239;48.152;11.584;2023-11-19T03:27:38;3.17;;;1.40;;
4452;SDS011;2239;48.152;11.584;2023-11-19T03:30:07;1.37;;;1.00;;
4452;SDS011;2239;48.152;11.584;2023-11-19T03:32:36;1.90;;;1.10;;
4452;SDS011;2239;48.152;11.584;2023-11-19T03:35:03;1.93;;;1.23;;
4452;SDS011;2239;48.152;11.584;2023-11-19T03:37:31;2.80;;;1.00;;
4452;SDS011;2239;48.152;11.584;2023-11-19T03:39:57;1.73;;;1.10;;
4452;SDS011;2239;48.152;11.584;2023-11-19T03:42:25;2.40;;;1.33;;
4452;SDS011;2239;48.152;11.584;2023-11-19T03:44:52;2.50;;;1.30;;
4452;SDS011;2239;48.152;11.584;2023-11-19T03:47:18;0.93;;;0.90;;
4452;SDS011;2239;48.152;11.584;2023-11-19T03:49:47;1.40;;;1.20;;
4452;SDS011;2239;48.152;11.584;2023-11-19T03:52:13;5.20;;;1.13;;
4452;SDS011;2239;48.152;11.584;2023-11-19T03:54:39;1.53;;;0.93;;
4452;SDS011;2239;48.152;11.584;2023-11-19T03:57:04;3.17;;;1.20;;
4452;SDS011;2239;48.152;11.584;2023-11-19T03:59:30;1.40;;;0.90;;
4452;SDS011;2239;48.152;11.584;2023-11-19T04:01:56;1.00;;;0.73;;
4452;SDS011;2239;48.152;11.584;2023-11-19T04:04:22;1.13;;;0.73;;
4452;SDS011;2239;48.152;11.584;2023-11-19T04:06:48;0.70;;;0.60;;
4452;SDS011;2239;48.152;11.584;2023-11-19T04:09:13;0.70;;;0.67;;
4452;SDS011;2239;48.152;11.584;2023-11-19T04:11:39;0.83;;;0.67;;
4452;SDS011;2239;48.152;11.584;2023-11-19T04:14:05;1.37;;;0.50;;
4452;SDS011;2239;48.152;11.584;2023-11-19T04:16:30;0.63;;;0.50;;
4452;SDS011;2239;48.152;11.584;2023-11-19T04:18:56;0.80;;;0.50;;
4452;SDS011;2239;48.152;11.584;2023-11-19T04:21:22;0.63;;;0.50;;
4452;SDS011;2239;48.152;11.584;2023-11-19T04:23:49;0.60;;;0.60;;
4452;SDS011;2239;48.152;11.584;2023-11-19T04:26:14;1.10;;;0.70;;
4452;SDS011;2239;48.152;11.584;2023-11-19T04:28:40;0.70;;;0.50;;
4452;SDS011;2239;48.152;11.584;2023-11-19T04:31:06;0.60;;;0.50;;
4452;SDS011;2239;48.152;11.584;2023-11-19T04:33:32;0.50;;;0.50;;
4452;SDS011;2239;48.152;11.584;2023-11-19T04:35:57;0.60;;;0.60;;
4452;SDS011;2239;48.152;11.584;2023-11-19T04:38:23;0.80;;;0.50;;
4452;SDS011;2239;48.152;11.584;2023-11-19T04:40:48;0.77;;;0.50;;
4452;SDS011;2239;48.152;11.584;2023-11-19T04:43:14;1.10;;;0.60;;
4452;SDS011;2239;48.152;11.584;2023-11-19T04:45:40;1.00;;;0.60;;
4452;SDS011;2239;48.152;11.584;2023-11-19T04:48:06;0.80;;;0.60;;
4452;SDS011;2239;48.152;11.584;2023-11-19T04:50:31;1.27;;;0.60;;
4452;SDS011;2239;48.152;11.584;2023-11-19T04:52:57;0.80;;;0.60;;
4452;SDS011;2239;48.152;11.584;2023-11-19T04:55:22;1.00;;;0.80;;
4452;SDS011;2239;48.152;11.584;2023-11-19T04:57:48;0.80;;;0.60;;
4452;SDS011;2239;48.152;11.584;2023-11-19T05:00:14;0.70;;;0.70;;
4452;SDS011;2239;48.152;11.584;2023-11-19T05:02:39;0.80;;;0.60;;
4452;SDS011;2239;48.152;11.584;2023-11-19T05:05:05;0.67;;;0.50;;
4452;SDS011;2239;48.152;11.584;2023-11-19T05:07:31;0.57;;;0.53;;
4452;SDS011;2239;48.152;11.584;2023-11-19T05:09:56;0.90;;;0.70;;
4452;SDS011;2239;48.152;11.584;2023-11-19T05:12:22;1.07;;;0.70;;
4452;SDS011;2239;48.152;11.584;2023-11-19T05:14:48;0.60;;;0.50;;
4452;SDS011;2239;48.152;11.584;2023-11-19T05:17:16;1.70;;;0.70;;
4452;SDS011;2239;48.152;11.584;2023-11-19T05:19:44;0.63;;;0.60;;
4452;SDS011;2239;48.152;11.584;2023-11-19T05:22:11;0.80;;;0.70;;
4452;SDS011;2239;48.152;11.584;2023-11-19T05:24:37;1.00;;;0.77;;
4452;SDS011;2239;48.152;11.584;2023-11-19T05:27:04;0.60;;;0.50;;
4452;SDS011;2239;48.152;11.584;2023-11-19T05:29:30;0.93;;;0.50;;
4452;SDS011;2239;48.152;11.584;2023-11-19T05:31:55;0.50;;;0.50;;
4452;SDS011;2239;48.152;11.584;2023-11-19T05:34:21;0.80;;;0.70;;
4452;SDS011;2239;48.152;11.584;2023-11-19T05:36:46;0.70;;;0.60;;
4452;SDS011;2239;48.152;11.584;2023-11-19T05:39:12;1.13;;;0.73;;
4452;SDS011;2239;48.152;11.584;2023-11-19T05:41:38;0.90;;;0.60;;
4452;SDS011;2239;48.152;11.584;2023-11-19T05:44:04;0.73;;;0.50;;
4452;SDS011;2239;48.152;11.584;2023-11-19T05:46:29;1.20;;;0.80;;
4452;SDS011;2239;48.152;11.584;2023-11-19T05:48:55;0.90;;;0.70;;
4452;SDS011;2239;48.152;11.584;2023-11-19T05:51:20;1.43;;;0.70;;
4452;SDS011;2239;48.152;11.584;2023-11-19T05:53:46;0.90;;;0.70;;
4452;SDS011;2239;48.152;11.584;2023-11-19T05:56:11;0.70;;;0.60;;
4452;SDS011;2239;48.152;11.584;2023-11-19T05:58:37;0.70;;;0.63;;
4452;SDS011;2239;48.152;11.584;2023-11-19T06:01:04;0.70;;;0.53;;
4452;SDS011;2239;48.152;11.584;2023-11-19T06:03:32;0.80;;;0.73;;
4452;SDS011;2239;48.152;11.584;2023-11-19T06:05:58;1.93;;;0.70;;
4452;SDS011;2239;48.152;11.584;2023-11-19T06:08:23;1.10;;;0.80;;
4452;SDS011;2239;48.152;11.584;2023-11-19T06:10:51;1.27;;;0.60;;
4452;SDS011;2239;48.152;11.584;2023-11-19T06:13:17;1.20;;;0.80;;
4452;SDS011;2239;48.152;11.584;2023-11-19T06:15:43;0.70;;;0.70;;
4452;SDS011;2239;48.152;11.584;2023-11-19T06:18:09;0.70;;;0.60;;
4452;SDS011;2239;48.152;11.584;2023-11-19T06:20:36;0.70;;;0.50;;
4452;SDS011;2239;48.152;11.584;2023-11-19T06:23:02;1.07;;;0.70;;
4452;SDS011;2239;48.152;11.584;2023-11-19T06:25:28;0.60;;;0.50;;
4452;SDS011;2239;48.152;11.584;2023-11-19T06:27:53;0.60;;;0.50;;
4452;SDS011;2239;48.152;11.584;2023-11-19T06:30:19;1.03;;;0.70;;
4452;SDS011;2239;48.152;11.584;2023-11-19T06:32:45;1.10;;;0.60;;
4452;SDS011;2239;48.152;11.584;2023-11-19T06:35:11;5.40;;;0.70;;
4452;SDS011;2239;48.152;11.584;2023-11-19T06:37:39;0.73;;;0.60;;
4452;SDS011;2239;48.152;11.584;2023-11-19T06:40:05;0.60;;;0.60;;
4452;SDS011;2239;48.152;11.584;2023-11-19T06:42:32;0.90;;;0.60;;
4452;SDS011;2239;48.152;11.584;2023-11-19T06:44:57;0.97;;;0.50;;
4452;SDS011;2239;48.152;11.584;2023-11-19T06:47:26;0.63;;;0.47;;
4452;SDS011;2239;48.152;11.584;2023-11-19T06:49:52;0.93;;;0.53;;
4452;SDS011;2239;48.152;11.584;2023-11-19T06:52:18;1.67;;;0.60;;
4452;SDS011;2239;48.152;11.584;2023-11-19T06:54:44;0.70;;;0.60;;
4452;SDS011;2239;48.152;11.584;2023-11-19T06:57:10;0.70;;;0.60;;
4452;SDS011;2239;48.152;11.584;2023-11-19T06:59:36;0.60;;;0.50;;
4452;SDS011;2239;48.152;11.584;2023-11-19T07:02:02;0.70;;;0.53;;
4452;SDS011;2239;48.152;11.584;2023-11-19T07:04:28;0.80;;;0.60;;
4452;SDS011;2239;48.152;11.584;2023-11-19T07:06:53;0.50;;;0.40;;
4452;SDS011;2239;48.152;11.584;2023-11-19T07:09:19;0.70;;;0.50;;
4452;SDS011;2239;48.152;11.584;2023-11-19T07:11:44;1.47;;;0.50;;
4452;SDS011;2239;48.152;11.584;2023-11-19T07:14:10;1.10;;;0.50;;
4452;SDS011;2239;48.152;11.584;2023-11-19T07:16:36;0.70;;;0.50;;
4452;SDS011;2239;48.152;11.584;2023-11-19T07:19:03;1.03;;;0.40;;
4452;SDS011;2239;48.152;11.584;2023-11-19T07:21:30;0.90;;;0.50;;
4452;SDS011;2239;48.152;11.584;2023-11-19T07:23:55;0.60;;;0.40;;
4452;SDS011;2239;48.152;11.584;2023-11-19T07:26:21;1.03;;;0.77;;
4452;SDS011;2239;48.152;11.584;2023-11-19T07:28:48;0.90;;;0.40;;
4452;SDS011;2239;48.152;11.584;2023-11-19T07:31:14;0.60;;;0.60;;
4452;SDS011;2239;48.152;11.584;2023-11-19T07:33:39;0.70;;;0.50;;
4452;SDS011;2239;48.152;11.584;2023-11-19T07:36:07;0.90;;;0.70;;
4452;SDS011;2239;48.152;11.584;2023-11-19T07:38:33;0.80;;;0.50;;
4452;SDS011;2239;48.152;11.584;2023-11-19T07:40:59;0.77;;;0.40;;
4452;SDS011;2239;48.152;11.584;2023-11-19T07:43:25;0.50;;;0.50;;
4452;SDS011;2239;48.152;11.584;2023-11-19T07:45:51;1.20;;;0.60;;
4452;SDS011;2239;48.152;11.584;2023-11-19T07:48:17;0.53;;;0.43;;
4452;SDS011;2239;48.152;11.584;2023-11-19T07:50:47;1.43;;;0.50;;
4452;SDS011;2239;48.152;11.584;2023-11-19T07:53:15;1.70;;;0.60;;
4452;SDS011;2239;48.152;11.584;2023-11-19T07:55:44;0.50;;;0.50;;
4452;SDS011;2239;48.152;11.584;2023-11-19T07:58:12;0.60;;;0.50;;
4452;SDS011;2239;48.152;11.584;2023-11-19T08:00:38;0.60;;;0.40;;
4452;SDS011;2239;48.152;11.584;2023-11-19T08:03:04;0.50;;;0.40;;
4452;SDS011;2239;48.152;11.584;2023-11-19T08:05:30;0.70;;;0.67;;
4452;SDS011;2239;48.152;11.584;2023-11-19T08:07:56;0.83;;;0.50;;
4452;SDS011;2239;48.152;11.584;2023-11-19T08:10:22;0.60;;;0.50;;
4452;SDS011;2239;48.152;11.584;2023-11-19T08:12:48;0.50;;;0.40;;
4452;SDS011;2239;48.152;11.584;2023-11-19T08:15:14;0.50;;;0.40;;
4452;SDS011;2239;48.152;11.584;2023-11-19T08:17:40;1.33;;;0.60;;
4452;SDS011;2239;48.152;11.584;2023-11-19T08:20:06;0.60;;;0.50;;
4452;SDS011;2239;48.152;11.584;2023-11-19T08:22:35;0.60;;;0.40;;
4452;SDS011;2239;48.152;11.584;2023-11-19T08:25:01;0.50;;;0.40;;
4452;SDS011;2239;48.152;11.584;2023-11-19T08:27:29;0.50;;;0.40;;
4452;SDS011;2239;48.152;11.584;2023-11-19T08:29:54;0.50;;;0.40;;
4452;SDS011;2239;48.152;11.584;2023-11-19T08:32:23;0.60;;;0.43;;
4452;SDS011;2239;48.152;11.584;2023-11-19T08:34:51;0.60;;;0.50;;
4452;SDS011;2239;48.152;11.584;2023-11-19T08:37:17;2.30;;;0.50;;
4452;SDS011;2239;48.152;11.584;2023-11-19T08:39:45;1.17;;;0.57;;
4452;SDS011;2239;48.152;11.584;2023-11-19T08:42:11;2.40;;;0.50;;
4452;SDS011;2239;48.152;11.584;2023-11-19T08:44:37;0.60;;;0.47;;
4452;SDS011;2239;48.152;11.584;2023-11-19T08:47:03;0.50;;;0.40;;
4452;SDS011;2239;48.152;11.584;2023-11-19T08:49:29;0.67;;;0.50;;
4452;SDS011;2239;48.152;11.584;2023-11-19T08:51:54;0.50;;;0.40;;
4452;SDS011;2239;48.152;11.584;2023-11-19T08:54:20;0.50;;;0.50;;
4452;SDS011;2239;48.152;11.584;2023-11-19T08:56:47;0.70;;;0.60;;
4452;SDS011;2239;48.152;11.584;2023-11-19T08:59:13;0.80;;;0.60;;
4452;SDS011;2239;48.152;11.584;2023-11-19T09:01:40;1.33;;;0.67;;
4452;SDS011;2239;48.152;11.584;2023-11-19T09:04:06;0.70;;;0.63;;
4452;SDS011;2239;48.152;11.584;2023-11-19T09:06:31;0.67;;;0.50;;
4452;SDS011;2239;48.152;11.584;2023-11-19T09:08:57;0.87;;;0.60;;
4452;SDS011;2239;48.152;11.584;2023-11-19T09:11:26;0.70;;;0.60;;
4452;SDS011;2239;48.152;11.584;2023-11-19T09:13:52;1.23;;;0.70;;
4452;SDS011;2239;48.152;11.584;2023-11-19T09:16:18;0.60;;;0.50;;
4452;SDS011;2239;48.152;11.584;2023-11-19T09:18:43;0.77;;;0.47;;
4452;SDS011;2239;48.152;11.584;2023-11-19T09:21:12;0.60;;;0.60;;
4452;SDS011;2239;48.152;11.584;2023-11-19T09:23:38;0.70;;;0.60;;
4452;SDS011;2239;48.152;11.584;2023-11-19T09:26:07;0.70;;;0.70;;
4452;SDS011;2239;48.152;11.584;2023-11-19T09:28:35;1.00;;;0.70;;
4452;SDS011;2239;48.152;11.584;2023-11-19T09:31:00;0.77;;;0.60;;
4452;SDS011;2239;48.152;11.584;2023-11-19T09:33:29;0.80;;;0.60;;
4452;SDS011;2239;48.152;11.584;2023-11-19T09:35:55;1.27;;;0.60;;
4452;SDS011;2239;48.152;11.584;2023-11-19T09:38:21;0.60;;;0.50;;
4452;SDS011;2239;48.152;11.584;2023-11-19T09:40:46;1.00;;;0.70;;
4452;SDS011;2239;48.152;11.584;2023-11-19T09:43:12;1.47;;;0.70;;
4452;SDS011;2239;48.152;11.584;2023-11-19T09:45:48;0.60;;;0.50;;
4452;SDS011;2239;48.152;11.584;2023-11-19T09:48:16;1.60;;;0.73;;
4452;SDS011;2239;48.152;11.584;2023-11-19T09:50:43;0.77;;;0.70;;
4452;SDS011;2239;48.152;11.584;2023-11-19T09:53:12;0.70;;;0.70;;
4452;SDS011;2239;48.152;11.584;2023-11-19T09:55:38;1.20;;;0.73;;
4452;SDS011;2239;48.152;11.584;2023-11-19T09:58:03;0.70;;;0.53;;
4452;SDS011;2239;48.152;11.584;2023-11-19T10:00:31;2.73;;;0.70;;
4452;SDS011;2239;48.152;11.584;2023-11-19T10:02:57;1.20;;;0.67;;
4452;SDS011;2239;48.152;11.584;2023-11-19T10:05:24;1.00;;;0.80;;
4452;SDS011;2239;48.152;11.584;2023-11-19T10:07:51;1.50;;;0.80;;
4452;SDS011;2239;48.152;11.584;2023-11-19T10:10:17;0.70;;;0.60;;
4452;SDS011;2239;48.152;11.584;2023-11-19T10:12:47;1.07;;;0.80;;
4452;SDS011;2239;48.152;11.584;2023-11-19T10:15:23;0.70;;;0.60;;
4452;SDS011;2239;48.152;11.584;2023-11-19T10:17:50;0.90;;;0.70;;
4452;SDS011;2239;48.152;11.584;2023-11-19T10:20:16;0.90;;;0.60;;
4452;SDS011;2239;48.152;11.584;2023-11-19T10:22:42;0.93;;;0.70;;
4452;SDS011;2239;48.152;11.584;2023-11-19T10:28:06;1.07;;;0.70;;
4452;SDS011;2239;48.152;11.584;2023-11-19T10:30:31;1.50;;;0.80;;
4452;SDS011;2239;48.152;11.584;2023-11-19T10:35:27;1.50;;;0.83;;
4452;SDS011;2239;48.152;11.584;2023-11-19T10:37:53;0.80;;;0.70;;
4452;SDS011;2239;48.152;11.584;2023-11-19T10:40:19;1.43;;;0.77;;
4452;SDS011;2239;48.152;11.584;2023-11-19T10:42:45;0.80;;;0.60;;
4452;SDS011;2239;48.152;11.584;2023-11-19T10:45:21;1.30;;;0.80;;
4452;SDS011;2239;48.152;11.584;2023-11-19T10:47:48;0.90;;;0.80;;
4452;SDS011;2239;48.152;11.584;2023-11-19T10:50:16;2.17;;;0.67;;
4452;SDS011;2239;48.152;11.584;2023-11-19T10:52:41;1.27;;;0.60;;
4452;SDS011;2239;48.152;11.584;2023-11-19T10:55:09;0.67;;;0.53;;
4452;SDS011;2239;48.152;11.584;2023-11-19T10:57:40;0.60;;;0.50;;
4452;SDS011;2239;48.152;11.584;2023-11-19T11:00:11;0.80;;;0.50;;
4452;SDS011;2239;48.152;11.584;2023-11-19T11:02:41;0.53;;;0.43;;
4452;SDS011;2239;48.152;11.584;2023-11-19T11:05:15;1.10;;;0.60;;
4452;SDS011;2239;48.152;11.584;2023-11-19T11:07:41;1.73;;;0.70;;
4452;SDS011;2239;48.152;11.584;2023-11-19T11:10:09;0.90;;;0.70;;
4452;SDS011;2239;48.152;11.584;2023-11-19T11:12:37;0.60;;;0.50;;
4452;SDS011;2239;48.152;11.584;2023-11-19T11:15:04;0.60;;;0.50;;
4452;SDS011;2239;48.152;11.584;2023-11-19T11:17:32;0.63;;;0.50;;
4452;SDS011;2239;48.152;11.584;2023-11-19T11:19:58;1.17;;;0.70;;
4452;SDS011;2239;48.152;11.584;2023-11-19T11:22:24;0.90;;;0.50;;
4452;SDS011;2239;48.152;11.584;2023-11-19T11:25:00;0.70;;;0.50;;
4452;SDS011;2239;48.152;11.584;2023-11-19T11:28:00;0.70;;;0.50;;
4452;SDS011;2239;48.152;11.584;2023-11-19T11:30:46;0.80;;;0.60;;
4452;SDS011;2239;48.152;11.584;2023-11-19T11:36:22;0.60;;;0.40;;
4452;SDS011;2239;48.152;11.584;2023-11-19T11:38:48;0.70;;;0.53;;
4452;SDS011;2239;48.152;11.584;2023-11-19T11:41:21;0.70;;;0.50;;
4452;SDS011;2239;48.152;11.584;2023-11-19T11:43:49;2.00;;;0.70;;
4452;SDS011;2239;48.152;11.584;2023-11-19T11:49:07;0.50;;;0.40;;
4452;SDS011;2239;48.152;11.584;2023-11-19T11:51:57;0.50;;;0.47;;
4452;SDS011;2239;48.152;11.584;2023-11-19T11:57:00;0.50;;;0.40;;
4452;SDS011;2239;48.152;11.584;2023-11-19T11:59:31;0.87;;;0.50;;
4452;SDS011;2239;48.152;11.584;2023-11-19T12:02:19;1.00;;;0.50;;
4452;SDS011;2239;48.152;11.584;2023-11-19T12:04:47;1.33;;;0.60;;
4452;SDS011;2239;48.152;11.584;2023-11-19T12:07:18;0.70;;;0.50;;
4452;SDS011;2239;48.152;11.584;2023-11-19T12:09:49;0.70;;;0.50;;
4452;SDS011;2239;48.152;11.584;2023-11-19T12:12:32;0.60;;;0.50;;
4452;SDS011;2239;48.152;11.584;2023-11-19T12:20:02;0.60;;;0.50;;
4452;SDS011;2239;48.152;11.584;2023-11-19T12:22:37;0.70;;;0.60;;
4452;SDS011;2239;48.152;11.584;2023-11-19T12:25:04;0.60;;;0.60;;
4452;SDS011;2239;48.152;11.584;2023-11-19T12:27:31;0.60;;;0.50;;
4452;SDS011;2239;48.152;11.584;2023-11-19T12:29:59;0.80;;;0.70;;
4452;SDS011;2239;48.152;11.584;2023-11-19T12:32:25;2.20;;;0.50;;
4452;SDS011;2239;48.152;11.584;2023-11-19T12:34:50;0.90;;;0.70;;
4452;SDS011;2239;48.152;11.584;2023-11-19T12:37:16;1.10;;;0.53;;
4452;SDS011;2239;48.152;11.584;2023-11-19T12:39:41;0.70;;;0.50;;
4452;SDS011;2239;48.152;11.584;2023-11-19T12:42:08;0.60;;;0.40;;
4452;SDS011;2239;48.152;11.584;2023-11-19T12:44:34;1.37;;;0.60;;
4452;SDS011;2239;48.152;11.584;2023-11-19T12:47:04;0.80;;;0.60;;
4452;SDS011;2239;48.152;11.584;2023-11-19T12:49:31;0.83;;;0.57;;
4452;SDS011;2239;48.152;11.584;2023-11-19T12:51:58;0.70;;;0.60;;
4452;SDS011;2239;48.152;11.584;2023-11-19T12:54:31;0.60;;;0.50;;
4452;SDS011;2239;48.152;11.584;2023-11-19T12:57:01;0.50;;;0.50;;
4452;SDS011;2239;48.152;11.584;2023-11-19T12:59:27;2.63;;;0.80;;
4452;SDS011;2239;48.152;11.584;2023-11-19T13:01:53;0.70;;;0.60;;
4452;SDS011;2239;48.152;11.584;2023-11-19T13:04:22;2.67;;;0.73;;
4452;SDS011;2239;48.152;11.584;2023-11-19T13:06:49;1.47;;;0.90;;
4452;SDS011;2239;48.152;11.584;2023-11-19T13:09:25;0.70;;;0.60;;
4452;SDS011;2239;48.152;11.584;2023-11-19T13:11:53;1.47;;;0.70;;
4452;SDS011;2239;48.152;11.584;2023-11-19T13:14:21;1.37;;;0.80;;
4452;SDS011;2239;48.152;11.584;2023-11-19T13:16:47;0.87;;;0.50;;
4452;SDS011;2239;48.152;11.584;2023-11-19T13:19:13;0.70;;;0.60;;
4452;SDS011;2239;48.152;11.584;2023-11-19T13:21:41;0.90;;;0.77;;
4452;SDS011;2239;48.152;11.584;2023-11-19T13:24:07;0.70;;;0.60;;
4452;SDS011;2239;48.152;11.584;2023-11-19T13:26:33;0.90;;;0.70;;
4452;SDS011;2239;48.152;11.584;2023-11-19T13:28:59;0.80;;;0.60;;
4452;SDS011;2239;48.152;11.584;2023-11-19T13:31:25;0.60;;;0.60;;
4452;SDS011;2239;48.152;11.584;2023-11-19T13:33:50;1.83;;;0.80;;
4452;SDS011;2239;48.152;11.584;2023-11-19T13:36:16;10.27;;;1.37;;
4452;SDS011;2239;48.152;11.584;2023-11-19T13:38:42;1.30;;;0.70;;
4452;SDS011;2239;48.152;11.584;2023-11-19T13:41:09;0.60;;;0.50;;
4452;SDS011;2239;48.152;11.584;2023-11-19T13:43:36;0.80;;;0.70;;
4452;SDS011;2239;48.152;11.584;2023-11-19T13:46:02;0.60;;;0.57;;
4452;SDS011;2239;48.152;11.584;2023-11-19T13:48:28;1.10;;;0.67;;
4452;SDS011;2239;48.152;11.584;2023-11-19T13:50:54;0.70;;;0.50;;
4452;SDS011;2239;48.152;11.584;2023-11-19T13:53:22;0.70;;;0.60;;
4452;SDS011;2239;48.152;11.584;2023-11-19T13:55:51;0.80;;;0.50;;
4452;SDS011;2239;48.152;11.584;2023-11-19T13:58:16;0.60;;;0.50;;
4452;SDS011;2239;48.152;11.584;2023-11-19T14:00:42;1.10;;;0.80;;
4452;SDS011;2239;48.152;11.584;2023-11-19T14:03:08;0.70;;;0.50;;
4452;SDS011;2239;48.152;11.584;2023-11-19T14:05:37;0.90;;;0.70;;
4452;SDS011;2239;48.152;11.584;2023-11-19T14:08:04;0.93;;;0.60;;
4452;SDS011;2239;48.152;11.584;2023-11-19T14:10:36;0.60;;;0.60;;
4452;SDS011;2239;48.152;11.584;2023-11-19T14:13:04;1.03;;;0.70;;
4452;SDS011;2239;48.152;11.584;2023-11-19T14:15:29;1.23;;;0.50;;
4452;SDS011;2239;48.152;11.584;2023-11-19T14:17:56;1.93;;;0.67;;
4452;SDS011;2239;48.152;11.584;2023-11-19T14:20:22;0.60;;;0.53;;
4452;SDS011;2239;48.152;11.584;2023-11-19T14:22:47;1.00;;;0.70;;
4452;SDS011;2239;48.152;11.584;2023-11-19T14:25:14;0.60;;;0.50;;
4452;SDS011;2239;48.152;11.584;2023-11-19T14:27:40;0.90;;;0.50;;
4452;SDS011;2239;48.152;11.584;2023-11-19T14:30:11;0.70;;;0.70;;
4452;SDS011;2239;48.152;11.584;2023-11-19T14:32:38;0.60;;;0.50;;
4452;SDS011;2239;48.152;11.584;2023-11-19T14:35:05;0.70;;;0.60;;
4452;SDS011;2239;48.152;11.584;2023-11-19T14:37:31;1.47;;;0.67;;
4452;SDS011;2239;48.152;11.584;2023-11-19T14:39:57;0.80;;;0.50;;
4452;SDS011;2239;48.152;11.584;2023-11-19T14:42:23;1.00;;;0.80;;
4452;SDS011;2239;48.152;11.584;2023-11-19T14:44:50;0.97;;;0.60;;
4452;SDS011;2239;48.152;11.584;2023-11-19T14:47:17;0.70;;;0.67;;
4452;SDS011;2239;48.152;11.584;2023-11-19T14:49:43;0.73;;;0.60;;
4452;SDS011;2239;48.152;11.584;2023-11-19T14:52:09;1.20;;;0.70;;
4452;SDS011;2239;48.152;11.584;2023-11-19T14:54:35;0.63;;;0.57;;
4452;SDS011;2239;48.152;11.584;2023-11-19T14:57:01;0.60;;;0.50;;
4452;SDS011;2239;48.152;11.584;2023-11-19T14:59:26;0.90;;;0.70;;
4452;SDS011;2239;48.152;11.584;2023-11-19T15:01:53;1.20;;;0.70;;
4452;SDS011;2239;48.152;11.584;2023-11-19T15:04:18;1.10;;;0.50;;
4452;SDS011;2239;48.152;11.584;2023-11-19T15:06:44;0.60;;;0.50;;
4452;SDS011;2239;48.152;11.584;2023-11-19T15:09:09;0.83;;;0.60;;
4452;SDS011;2239;48.152;11.584;2023-11-19T15:11:41;1.10;;;0.60;;
4452;SDS011;2239;48.152;11.584;2023-11-19T15:14:06;1.00;;;0.73;;
4452;SDS011;2239;48.152;11.584;2023-11-19T15:16:32;0.90;;;0.70;;
4452;SDS011;2239;48.152;11.584;2023-11-19T15:18:59;0.87;;;0.60;;
4452;SDS011;2239;48.152;11.584;2023-11-19T15:21:28;1.00;;;0.67;;